Terminal Aerodrome Forecast
Issued by NWS Hastings, NE

Home | Current Version | Previous Version | Text Only | Print | Product List | Glossary On
Versions: 1 2 3 4 5 6 7 8 9 10 11 12 13 14 15 16 17 18 19 20 21 22 23 24 25 26 27 28 29 30 31 32 33
000
FTUS43 KGID 281148 CCA
TAFGRI
TAF COR
KGRI 281148Z 2812/2912 VRB06KT P6SM VCTS BKN100CB WS015/22042KT
     FM281300 VRB06KT P6SM VCTS BKN100CB
     FM281600 35016G23KT P6SM SCT030 BKN040
     FM282200 36011KT P6SM FEW100
     FM290300 35006KT P6SM FEW200=

USA.gov is the U.S. government's official web portal to all federal, state and local government web resources and services.